^^
Station Historical Data
Daily Summary for February 21, 2018 Units:  Metric    English   Both
« Previous Day
Next Day »
Daily Weekly Monthly Yearly Custom
  High: Low: Average:
Temperature: -17.8 °C 19.9 °C 25.2 °C
Dew Point: -17.8 °C 2.9 °C 9.2 °C
Humidity: Humidity% 11% 40%
Wind Speed: 0km/h 0km/h 11.3km/h
Wind Gust: 0km/h - -
Wind- - SSW
Pressure: 0 hPa 1001.9 hPa -
Precipitation: 0 mm    
Historical Graphs
 
 
Tabular Data for February 21, 2018
Time Temperature Dew Point Pressure Wind Wind Speed Wind Gust Humidity Rainfall Rate (Hourly) solar Conditions
-17.8 °C -17.8 °C 0 hPa Calm     Humidity% 0 mm SolarRadiationWatts/m^2 W/m2 Conditions
00:12 24.6 °C 10.8 °C 1008.4 hPa SSW 19.5 km/h 25.7 km/h 42% 0 mm 0.0 W/m2
00:17 24.5 °C 10.7 °C 1008.4 hPa SSW 20.9 km/h 22.5 km/h 42% 0 mm 0.0 W/m2
00:25 24.3 °C 10.6 °C 1008.4 hPa SSW 14.3 km/h 20.9 km/h 42% 0 mm 0.0 W/m2
00:35 24.2 °C 10.5 °C 1008 hPa SSW 17.7 km/h 25.7 km/h 42% 0 mm 0.0 W/m2
00:40 24.1 °C 10.4 °C 1008 hPa SSW 17.7 km/h 29 km/h 42% 0 mm 0.0 W/m2
00:45 24.2 °C 10.5 °C 1008.4 hPa SSW 19.5 km/h 27.4 km/h 42% 0 mm 0.0 W/m2
00:50 24.1 °C 10.4 °C 1008 hPa SSW 17.7 km/h 24.1 km/h 42% 0 mm 0.0 W/m2
00:55 24.1 °C 10.4 °C 1008 hPa SSW 17.7 km/h 27.4 km/h 42% 0 mm 0.0 W/m2
01:01 24 °C 10.3 °C 1008 hPa SSW 19.5 km/h 25.7 km/h 42% 0 mm 0.0 W/m2
01:06 23.9 °C 10.2 °C 1008 hPa SSW 20.9 km/h 24.1 km/h 42% 0 mm 0.0 W/m2
01:11 23.9 °C 10.2 °C 1008 hPa SSW 19.5 km/h 22.5 km/h 42% 0 mm 0.0 W/m2
01:21 23.7 °C 10.4 °C 1008 hPa SSW 20.9 km/h 24.1 km/h 43% 0 mm 0.0 W/m2
01:31 23.5 °C 10.5 °C 1008 hPa SSW 17.7 km/h 24.1 km/h 44% 0 mm 0.0 W/m2
01:36 23.4 °C 10.5 °C 1008 hPa SSW 22.7 km/h 24.1 km/h 44% 0 mm 0.0 W/m2
01:41 23.4 °C 10.5 °C 1008 hPa SSW 14.3 km/h 25.7 km/h 44% 0 mm 0.0 W/m2
01:46 23.3 °C 10.4 °C 1008 hPa SSW 16.3 km/h 20.9 km/h 44% 0 mm 0.0 W/m2
01:56 23.1 °C 10.5 °C 1008 hPa SSW 14.3 km/h 20.9 km/h 45% 0 mm 0.0 W/m2
02:01 23 °C 10.4 °C 1008 hPa SSW 14.3 km/h 17.7 km/h 45% 0 mm 0.0 W/m2
02:06 23 °C 10.4 °C 1008 hPa SSW 11.1 km/h 19.3 km/h 45% 0 mm 0.0 W/m2
02:12 22.9 °C 10.7 °C 1007.7 hPa SSW 13 km/h 20.9 km/h 46% 0 mm 0.0 W/m2
02:21 22.7 °C 10.5 °C 1007.7 hPa SSW 13 km/h 16.1 km/h 46% 0 mm 0.0 W/m2
02:31 22.6 °C 10.4 °C 1007.7 hPa SSW 16.3 km/h 19.3 km/h 46% 0 mm 0.0 W/m2
02:41 22.5 °C 10.6 °C 1007.7 hPa SSW 14.3 km/h 19.3 km/h 47% 0 mm 0.0 W/m2
02:51 22.4 °C 10.5 °C 1007.7 hPa SSW 13 km/h 20.9 km/h 47% 0 mm 0.0 W/m2
02:56 22.3 °C 10.4 °C 1008 hPa SSW 11.1 km/h 16.1 km/h 47% 0 mm 0.0 W/m2
03:02 22.3 °C 10.8 °C 1007.7 hPa SSW 14.3 km/h 17.7 km/h 48% 0 mm 0.0 W/m2
03:07 22.2 °C 10.7 °C 1007.7 hPa SSW 13 km/h 19.3 km/h 48% 0 mm 0.0 W/m2
03:16 22 °C 10.5 °C 1008 hPa SSW 14.3 km/h 16.1 km/h 48% 0 mm 0.0 W/m2
03:22 21.9 °C 10.7 °C 1008 hPa SSW 13 km/h 16.1 km/h 49% 0 mm 0.0 W/m2
03:27 21.9 °C 10.7 °C 1008 hPa SSW 9.7 km/h 19.3 km/h 49% 0 mm 0.0 W/m2
03:32 21.9 °C 10.7 °C 1007.7 hPa SSW 11.1 km/h 20.9 km/h 49% 0 mm 0.0 W/m2
03:37 21.8 °C 10.6 °C 1007.7 hPa SSW 9.7 km/h 16.1 km/h 49% 0 mm 0.0 W/m2
03:42 21.7 °C 10.5 °C 1008 hPa SSW 13 km/h 16.1 km/h 49% 0 mm 0.0 W/m2
03:52 21.6 °C 10.7 °C 1007.7 hPa SSW 13 km/h 16.1 km/h 50% 0 mm 0.0 W/m2
03:57 21.5 °C 10.6 °C 1007.3 hPa SSW 14.3 km/h 17.7 km/h 50% 0 mm 0.0 W/m2
04:02 21.4 °C 10.5 °C 1007.7 hPa SSW 16.3 km/h 16.3 km/h 50% 0 mm 0.0 W/m2
04:07 21.3 °C 10.8 °C 1007.3 hPa SSW 9.7 km/h 14.5 km/h 51% 0 mm 0.0 W/m2
04:12 21.2 °C 10.7 °C 1007.3 hPa SSW 11.1 km/h 14.5 km/h 51% 0 mm 0.0 W/m2
04:18 21.2 °C 10.7 °C 1007.3 hPa SSW 9.7 km/h 12.9 km/h 51% 0 mm 0.0 W/m2
04:27 21 °C 10.5 °C 1007.3 hPa SSW 9.7 km/h 14.5 km/h 51% 0 mm 0.0 W/m2
04:32 21 °C 10.5 °C 1007.7 hPa SSW 13 km/h 14.5 km/h 51% 0 mm 0.0 W/m2
04:37 20.9 °C 10.7 °C 1007.7 hPa SSW 11.1 km/h 12.9 km/h 52% 0 mm 0.0 W/m2
04:42 20.9 °C 10.7 °C 1007.7 hPa SSW 11.1 km/h 14.5 km/h 52% 0 mm 0.0 W/m2
04:48 20.9 °C 10.7 °C 1007.7 hPa SSW 13 km/h 13 km/h 52% 0 mm 0.0 W/m2
04:53 20.8 °C 10.6 °C 1007.7 hPa SSW 13 km/h 16.1 km/h 52% 0 mm 0.0 W/m2
04:58 20.8 °C 10.6 °C 1007.7 hPa SSW 13 km/h 13 km/h 52% 0 mm 0.0 W/m2
05:03 20.7 °C 10.5 °C 1007.3 hPa SSW 11.1 km/h 12.9 km/h 52% 0 mm 0.0 W/m2
05:08 20.7 °C 10.5 °C 1007.3 hPa SSW 11.1 km/h 14.5 km/h 52% 0 mm 0.0 W/m2
05:13 20.7 °C 10.8 °C 1007.3 hPa SSW 11.1 km/h 12.9 km/h 53% 0 mm 0.0 W/m2
05:23 20.6 °C 10.7 °C 1007.3 hPa SSW 11.1 km/h 12.9 km/h 53% 0 mm 0.0 W/m2
05:28 20.6 °C 10.7 °C 1007.3 hPa SSW 9.7 km/h 12.9 km/h 53% 0 mm 0.0 W/m2
05:33 20.6 °C 10.7 °C 1007.3 hPa SSW 9.7 km/h 12.9 km/h 53% 0 mm 0.0 W/m2
05:38 20.6 °C 10.7 °C 1007.3 hPa SSW 11.1 km/h 11.3 km/h 53% 0 mm 0.0 W/m2
05:49 20.5 °C 10.6 °C 1007.3 hPa SSW 13 km/h 16.1 km/h 53% 0 mm 0.0 W/m2
05:58 20.4 °C 10.5 °C 1007.3 hPa SSW 13 km/h 16.1 km/h 53% 0 mm 0.0 W/m2
06:03 20.4 °C 10.5 °C 1007.7 hPa SSW 9.7 km/h 14.5 km/h 53% 0 mm 0.0 W/m2
06:08 20.4 °C 10.5 °C 1007.3 hPa SSW 16.3 km/h 16.3 km/h 53% 0 mm 0.0 W/m2
06:13 20.3 °C 10.4 °C 1007.3 hPa SSW 16.3 km/h 16.3 km/h 53% 0 mm 0.0 W/m2
06:18 20.3 °C 10.7 °C 1007.7 hPa SSW 11.1 km/h 16.1 km/h 54% 0 mm 0.0 W/m2
06:28 20.2 °C 10.6 °C 1007.7 hPa SSW 11.1 km/h 16.1 km/h 54% 0 mm 0.0 W/m2
06:34 20.1 °C 10.5 °C 1007.7 hPa SSW 11.1 km/h 14.5 km/h 54% 0 mm 0.0 W/m2
06:39 20 °C 10.7 °C 1007.7 hPa SSW 11.1 km/h 16.1 km/h 55% 0 mm 5.0 W/m2
06:45 19.9 °C 10.6 °C 1007.7 hPa SSW 11.1 km/h 12.9 km/h 55% 0 mm 7.0 W/m2
06:54 19.9 °C 10.6 °C 1008 hPa SSW 16.3 km/h 16.3 km/h 55% 0 mm 16.0 W/m2
06:59 19.9 °C 10.6 °C 1008 hPa SSW 9.7 km/h 16.1 km/h 55% 0 mm 23.0 W/m2
07:09 20.1 °C 10.8 °C 1008 hPa SSW 11.1 km/h 16.1 km/h 55% 0 mm 46.0 W/m2
07:15 20.2 °C 10.9 °C 1008 hPa SSW 13 km/h 14.5 km/h 55% 0 mm 60.0 W/m2
07:22 20.3 °C 10.7 °C 1008 hPa SSW 13 km/h 16.1 km/h 54% 0 mm 77.0 W/m2
07:29 20.6 °C 11 °C 1008 hPa SSW 9.7 km/h 14.5 km/h 54% 0 mm 118.0 W/m2
07:50 20.9 °C 11 °C 1008.4 hPa SSW 11.1 km/h 16.1 km/h 53% 0 mm 179.0 W/m2
08:04 21.3 °C 11 °C 1008.4 hPa SW 14.3 km/h 19.3 km/h 52% 0 mm 246.0 W/m2
08:13 21.5 °C 10.9 °C 1008.4 hPa SW 16.3 km/h 20.9 km/h 51% 0 mm 283.0 W/m2
08:22 21.8 °C 10.9 °C 1008.4 hPa SW 14.3 km/h 16.1 km/h 50% 0 mm 322.0 W/m2
08:33 22.1 °C 11.2 °C 1008.4 hPa SW 9.7 km/h 17.7 km/h 50% 0 mm 359.0 W/m2
08:45 22.6 °C 11 °C 1008.4 hPa SW 16.3 km/h 17.7 km/h 48% 0 mm 396.0 W/m2
08:57 23.1 °C 10.8 °C 1008.4 hPa SW 9.7 km/h 16.1 km/h 46% 0 mm 446.0 W/m2
09:05 23.5 °C 10.9 °C 1008.4 hPa SW 17.7 km/h 17.7 km/h 45% 0 mm 483.0 W/m2
09:11 23.6 °C 11 °C 1008.4 hPa SW 16.3 km/h 20.9 km/h 45% 0 mm 501.0 W/m2
09:17 23.9 °C 10.9 °C 1008.4 hPa SW 14.3 km/h 17.7 km/h 44% 0 mm 519.0 W/m2
09:24 24.2 °C 10.8 °C 1008.4 hPa SW 14.3 km/h 19.3 km/h 43% 0 mm 534.0 W/m2
09:36 24.5 °C 11.1 °C 1008.4 hPa SW 9.7 km/h 19.3 km/h 43% 0 mm 568.0 W/m2
10:05 25.9 °C 10.9 °C 1008 hPa SW 13 km/h 17.7 km/h 39% 0 mm 663.0 W/m2
10:14 26.2 °C 10.8 °C 1008 hPa SW 11.1 km/h 14.5 km/h 38% 0 mm 691.0 W/m2
10:25 26.7 °C 10.4 °C 1008 hPa SW 13 km/h 14.5 km/h 36% 0 mm 719.0 W/m2
10:36 27.3 °C 10.5 °C 1008 hPa SW 7.9 km/h 9.7 km/h 35% 0 mm 747.0 W/m2
10:45 27.7 °C 10 °C 1008 hPa SW 9.7 km/h 14.5 km/h 33% 0 mm 775.0 W/m2
10:56 28.3 °C 10 °C 1008 hPa SW 13 km/h 16.1 km/h 32% 0 mm 798.0 W/m2
11:07 29.1 °C 10.2 °C 1007.7 hPa SW 11.1 km/h 12.9 km/h 31% 0 mm 819.0 W/m2
11:23 29.5 °C 9.6 °C 1007.7 hPa SW 13 km/h 14.5 km/h 29% 0 mm 851.0 W/m2
11:38 30.3 °C 9.2 °C 1007.3 hPa SW 9.7 km/h 12.9 km/h 27% 0 mm 875.0 W/m2
12:08 31.3 °C 8.3 °C 1007 hPa Calm   11.3 km/h 24% 0 mm 918.0 W/m2
12:32 32.1 °C 6.3 °C 1006.7 hPa Calm     20% 0 mm 942.0 W/m2
12:43 32.7 °C 7.5 °C 1006.3 hPa SW 6.4 km/h 11.3 km/h 21% 0 mm 946.0 W/m2
12:59 33 °C 7.1 °C 1006.3 hPa Calm   11.3 km/h 20% 0 mm 949.0 W/m2
13:11 33.7 °C 6.9 °C 1006 hPa Calm   9.7 km/h 19% 0 mm 947.0 W/m2
13:24 33.9 °C 7 °C 1006 hPa Calm     19% 0 mm 949.0 W/m2
13:37 34.4 °C 6.7 °C 1005.6 hPa SW 6.4 km/h 8 km/h 18% 0 mm 942.0 W/m2
13:46 34.8 °C 7 °C 1005.6 hPa SW 9.7 km/h 12.9 km/h 18% 0 mm 937.0 W/m2
13:52 35 °C 6.3 °C 1005.3 hPa SW 6.4 km/h 12.9 km/h 17% 0 mm 932.0 W/m2
14:09 35.4 °C 5.8 °C 1005 hPa Calm   8 km/h 16% 0 mm 912.0 W/m2
14:19 35.9 °C 6.1 °C 1005 hPa Calm     16% 0 mm 904.0 W/m2
14:47 36.8 °C 4.9 °C 1004.3 hPa Calm     14% 0 mm 865.0 W/m2
15:16 38.1 °C 4.9 °C 1003.9 hPa Calm   8 km/h 13% 0 mm 800.0 W/m2
15:25 37.9 °C 3.6 °C 1003.6 hPa Calm   6.4 km/h 12% 0 mm 773.0 W/m2
15:34 37.9 °C 4.7 °C 1003.6 hPa West 9.7 km/h 17.7 km/h 13% 0 mm 752.0 W/m2
15:45 37.9 °C 3.6 °C 1003.3 hPa Calm     12% 0 mm 721.0 W/m2
15:57 38.1 °C 3.7 °C 1003.3 hPa Calm     12% 0 mm 696.0 W/m2
16:06 37.9 °C 3.6 °C 1003.3 hPa Calm   1.6 km/h 12% 0 mm 668.0 W/m2
16:21 38.2 °C 3.8 °C 1002.9 hPa West 4.7 km/h 9.7 km/h 12% 0 mm 626.0 W/m2
16:47 38.6 °C 2.9 °C 1002.6 hPa West 13 km/h 14.5 km/h 11% 0 mm 541.0 W/m2
17:13 37.8 °C 4.7 °C 1002.6 hPa SW 14.3 km/h 16.1 km/h 13% 0 mm 452.0 W/m2
17:23 37.8 °C 4.7 °C 1002.3 hPa SW 14.3 km/h 16.1 km/h 13% 0 mm 417.0 W/m2
17:33 37.6 °C 5.6 °C 1002.3 hPa SW 11.1 km/h 16.1 km/h 14% 0 mm 385.0 W/m2
17:59 37.3 °C 5.3 °C 1001.9 hPa SW 9.7 km/h 12.9 km/h 14% 0 mm 294.0 W/m2
18:14 37.3 °C 5.3 °C 1001.9 hPa Calm     14% 0 mm 234.0 W/m2
18:24 37.1 °C 4.1 °C 1001.9 hPa SW 7.9 km/h 11.3 km/h 13% 0 mm 165.0 W/m2
Canyon Roadhouse, Fishriver Canyon, Namibia
Compliments of Weather Underground - 2.25 mb